AirNav   Pilot Hours Calculator
 
 1714 users online  

18NH Catholic Medical Center Heliport
Manchester, New Hampshire, USA

GOING TO MANCHESTER?


FAA INFORMATION EFFECTIVE 02 JANUARY 2020

Location

FAA Identifier: 18NH
Lat/Long: 42-59-30.1200N 071-28-26.7800W
42-59.502000N 071-28.446333W
42.9917000,-71.4741056
(estimated)
Elevation: 252 ft. / 77 m (estimated)
Variation: 15W (2015)
Time zone: UTC -5 (UTC -4 during Daylight Saving Time)
Zip code: 03101

Heliport Operations

Heliport use: Private use. Permission required prior to landing
Activation date: 03/2010
Control tower: no
ARTCC: BOSTON CENTER
FSS: BANGOR FLIGHT SERVICE STATION
NOTAMs facility: FDC (NOTAM-D service not available)
Attendance: UNATNDD
Wind indicator: lighted
Segmented circle: no
Lights: FOR PERI LGTS CALL 603-668-3545.
Beacon: white-green-yellow (heliport)

Heliport Communications

WX ASOS at MHT (4 nm SE): 119.55 (603-621-1766)
WX AWOS-3PT at ASH (13 nm S): 125.1 (603-578-0473)
WX ASOS at CON (13 nm N): 132.325 (603-224-6558)

Nearby radio navigation aids

VOR radial/distance  VOR name  Freq  Var
MHTr343/8.7MANCHESTER VOR/DME114.4015W
CONr177/14.4CONCORD VOR/DME112.9015W
LWMr327/22.5LAWRENCE VOR/DME112.5015W
PSMr275/28.7PEASE VOR/DME116.5016W
GDMr058/37.1GARDNER VOR/DME110.6014W
EENr086/37.8KEENE VORTAC109.4014W

 
NDB name  Hdg/Dist  Freq  Var  ID
EPSOM203/7.721616WCO -.-. ---
FITZY032/8.020915WMJ -- .---
ROLLINS260/31.426016WESG . ... --.

Heliport Services

Runway Information

Helipad H1

Dimensions: 44 x 44 ft. / 13 x 13 m
Surface: asphalt, in good condition
Runway edge lights: PERI
Latitude: 42-59.502000N
Longitude: 071-28.446333W
Elevation: 252.0 ft.
Traffic pattern: leftleft
Markings: basic, in good condition
Obstructions: bldg
30 FT BLDG 141 FT W OF PAD.

Heliport Ownership and Management from official FAA records

Ownership: Privately-owned
Owner: CATHOLIC MEDICAL CENTER
100 MCGREGOR ST
MANCHESTER, NH 03102
Phone 603-668-3545
Manager: CATHOLIC MEDICAL CENTER
100 MCGREGOR ST
MANCHESTER, NH 03102
Phone 603-668-3545

Additional Remarks

FOR CD CTC BOSTON APCH AT 603-594-5551.

Instrument Procedures

There are no published instrument procedures at 18NH.

Some nearby airports with instrument procedures:

KMHT - Manchester Airport (4 nm SE)
KASH - Boire Field Airport (13 nm S)
KCON - Concord Municipal Airport (13 nm N)
KLWM - Lawrence Municipal Airport (23 nm SE)
KAFN - Jaffrey Airport-Silver Ranch (26 nm SW)
 
Loc | Ops | Rwys | IFR | FBO | Links
Com | Nav | Svcs | Stats | Notes
Aerial photo
No photo
 
Sectional chart

 
Airport distance calculator
Flying to Catholic Medical Center Heliport? Find the distance to fly.

From to 18NH

Sunrise and sunset
Times for 23-Jan-2020
 Local
(UTC-5)
 Zulu
(UTC)
Morning civil twilight06:4011:40
Sunrise07:1012:10
Sunset16:4521:45
Evening civil twilight17:1622:16

Current date and time
Zulu (UTC)  23-Jan-2020 21:45:44
Local (UTC-5)  23-Jan-2020 16:45:44
 
METAR
KMHT 
4nm SE 
232053Z 00000KT 10SM BKN200 OVC250 06/M09 A3028 RMK AO2 SLP272 T00561089 55007
KCON 
13nm N 
232051Z AUTO 00000KT 10SM CLR 03/M09 A3028 RMK AO2 SLP260 T00281089 55007
KASH 
14nm S 
232056Z 00000KT 10SM CLR 04/M06 A3030 RMK AO2 SLP266 T00391061 55008
TAF
KMHT 
4nm SE 
231720Z 2318/2418 VRB03KT P6SM BKN250
KCON 
13nm N 
231720Z 2318/2418 VRB03KT P6SM BKN250
NOTAMs
Click for the latest NOTAMs
NOTAMs are issued by the DoD/FAA and will open in a separate window not controlled by AirNav.

 

 
 

Would you like to see your business listed on this page?

 If your business provides an interesting product or service to pilots, flight crews, aircraft, or users of the Catholic Medical Center Heliport, you should consider listing it here.  To start the listing process, click on the button below
 
Add a business
 

Other Pages about Catholic Medical Center Heliport

Update a link
 
Copyright © AirNav, LLC. All rights reserved. Privacy Policy  Contact